Pagrindinis puslapis
METAR-TAF:

METAR-TAF

Oro uostai :

Rosarijas, Argentina

platuma: 32-55S, ilguma: 060-47W, Aukštis: 25 m

Dabartinis oras

Ataskaita buvo paskelbta 25 minutes, ne 21:00 UTC
Vėjas 12 kt iš Pietų/Pietvakarių
Temperatūra 26°C
Drėgmė 21%
Slėgis 1012 hPa
Matomumas 10 km arba daugiau
nėra debesų žemiau 1500 m ir nėra kamuolinių lietaus debesų

METAR: SAAR 122100Z 20012KT CAVOK 26/02 Q1012

Laikas: 18:25 (21:25 UTC)

Prognozė

Ataskaita buvo paskelbta 4 valandos ir 25 minutes, ne 17:00 UTC
Prognozė galioja nuo 12 metu 18 UTC su 13 metu 18 UTC
Vėjas 15 kt iš Pietų/Pietvakarių su gūsio iki 25 kt
Matomumas 10 km arba daugiau
nėra debesų žemiau 1500 m ir nėra kamuolinių lietaus debesų
Tapsmas
nuo 12 metu 21 UTC su 12 metu 23 UTC
Vėjas 10 kt iš Pietų
Tapsmas
nuo 13 metu 06 UTC su 13 metu 09 UTC
Vėjas 10 kt iš Rytų
Tapsmas
nuo 13 metu 12 UTC su 13 metu 14 UTC
Vėjas 15 kt iš Šiaurės Rytų

TAF: SAAR 121700Z 1218/1318 20015G25KT CAVOK TX29/1318Z TN19/1309Z BECMG 1221/1223 18010KT BECMG 1306/1309 09010KT BECMG 1312/1314 05015KT

Orai ataskaitas ir orų prognozės (METAR, TAF).

turimą stotys yra geltonos ir raudonos taškus žemėlapyje.

Perkelti pele per norėdami pamatyti stoties vardą.

Tada spustelėkite, norėdami matyti oro stebėjimo ir prognozės.

Norėdami pakeisti žemėlapį: spustelėkite ant žalios mygtukų su juodo kryžiaus žemyn,; žalią mygtuką su brūkšneliu, jei norite nutolinti; arba žalių rodyklių gretimoms žemėlapius.


METAR-TAF: